Time;durP1;ratioP1;P1;durP2;ratioP2;P2;SDS_P1;SDS_P2;PMS_P1;PMS_P2;Temp;Humidity;BMP_temperature;BMP_pressure;BME280_temperature;BME280_humidity;BME280_pressure;Samples;Min_cycle;Max_cycle;Signal;HPM_P1;HPM_P2
2022/07/16 00:03:30;;;;;;;;;;;;;;;16.65;92.33;91122.38;5012354;28;19920;-69
2022/07/16 00:05:55;;;;;;;;;;;;;;;16.59;92.58;91124.53;5012274;28;19913;-68
2022/07/16 00:08:21;;;;;;;;;;;;;;;16.56;93.03;91124.41;5012271;28;20012;-68
2022/07/16 00:10:46;;;;;;;;;;;;;;;16.52;93.61;91124.31;5012048;28;20303;-69
2022/07/16 00:13:12;;;;;;;;;;;;;;;16.46;94.59;91115.72;5011819;28;19913;-69
2022/07/16 00:15:37;;;;;;;;;;;;;;;16.42;94.86;91128.28;5012145;28;19921;-69
2022/07/16 00:20:46;;;;;;;;;;;;;;;16.38;95.45;91123.91;5012042;28;19921;-69
2022/07/16 00:23:12;;;;;;;;;;;;;;;16.34;95.80;91115.75;5011861;28;19917;-68
2022/07/16 00:25:37;;;;;;;;;;;;;;;16.34;95.70;91123.00;5012009;28;19917;-70
2022/07/16 00:28:03;;;;;;;;;;;;;;;16.27;96.19;91120.91;5012020;28;19913;-69
2022/07/16 00:30:29;;;;;;;;;;;;;;;16.23;96.63;91128.06;5011872;28;19917;-69
2022/07/16 00:32:54;;;;;;;;;;;;;;;16.23;97.17;91120.00;5011876;28;19920;-68
2022/07/16 00:35:20;;;;;;;;;;;;;;;16.18;97.87;91125.59;5011878;28;19917;-68
2022/07/16 00:37:45;;;;;;;;;;;;;;;16.15;97.97;91120.94;5011824;28;19923;-68
2022/07/16 00:40:11;;;;;;;;;;;;;;;16.09;98.04;91120.34;5011836;28;19956;-68
2022/07/16 00:42:36;;;;;;;;;;;;;;;16.03;98.83;91123.59;5011833;28;19913;-67
2022/07/16 00:45:01;;;;;;;;;;;;;;;15.98;99.15;91124.63;5011870;28;19913;-68
2022/07/16 00:47:26;;;;;;;;;;;;;;;15.95;99.48;91125.31;5011785;28;19917;-67
2022/07/16 00:49:52;;;;;;;;;;;;;;;15.92;99.82;91131.31;5011672;28;20350;-68
2022/07/16 00:52:17;;;;;;;;;;;;;;;15.94;99.38;91121.06;5011834;28;19921;-68
2022/07/16 00:54:42;;;;;;;;;;;;;;;15.93;99.62;91118.69;5011684;28;19913;-68
2022/07/16 00:57:08;;;;;;;;;;;;;;;15.95;98.58;91119.16;5011713;28;19975;-68
2022/07/16 00:59:33;;;;;;;;;;;;;;;15.94;98.35;91125.63;5011677;28;19953;-68
2022/07/16 01:01:59;;;;;;;;;;;;;;;15.92;98.53;91117.13;5026830;28;20394;-68
2022/07/16 01:04:25;;;;;;;;;;;;;;;15.91;98.74;91118.25;5011651;28;19924;-68
2022/07/16 01:06:52;;;;;;;;;;;;;;;15.87;99.08;91118.13;5011537;28;19925;-69
2022/07/16 01:09:19;;;;;;;;;;;;;;;15.87;99.01;91120.81;5011588;28;20402;-69
2022/07/16 01:11:44;;;;;;;;;;;;;;;15.88;99.09;91125.06;5011716;28;19996;-69
2022/07/16 01:14:10;;;;;;;;;;;;;;;15.87;98.74;91118.91;5011499;28;20004;-69
2022/07/16 01:16:35;;;;;;;;;;;;;;;15.84;99.56;91116.91;5011573;28;19956;-69
2022/07/16 01:19:01;;;;;;;;;;;;;;;15.81;99.77;91119.50;5011508;28;20463;-68
2022/07/16 01:21:26;;;;;;;;;;;;;;;15.82;99.30;91118.38;5011456;28;19964;-69
2022/07/16 01:23:51;;;;;;;;;;;;;;;15.83;98.93;91128.75;5011317;28;20392;-69
2022/07/16 01:26:17;;;;;;;;;;;;;;;15.84;98.38;91118.81;5014101;28;19921;-70
2022/07/16 01:28:42;;;;;;;;;;;;;;;15.85;97.95;91120.38;5015112;28;19921;-69
2022/07/16 01:31:07;;;;;;;;;;;;;;;15.81;98.32;91114.91;5015020;28;19921;-69
2022/07/16 01:33:34;;;;;;;;;;;;;;;15.81;98.73;91112.22;5015001;28;19917;-69
2022/07/16 01:36:08;;;;;;;;;;;;;;;15.73;99.27;91110.41;5014965;28;19921;-70
2022/07/16 01:38:34;;;;;;;;;;;;;;;15.71;99.72;91111.88;5014883;28;20032;-70
2022/07/16 01:40:59;;;;;;;;;;;;;;;15.73;99.38;91121.16;5014835;28;20007;-70
2022/07/16 01:43:28;;;;;;;;;;;;;;;15.70;99.72;91121.81;5014842;28;19929;-69
2022/07/16 01:45:54;;;;;;;;;;;;;;;15.66;100.00;91117.47;5014752;28;19989;-70
2022/07/16 01:48:20;;;;;;;;;;;;;;;15.58;100.00;91116.41;5014713;28;19964;-69
2022/07/16 01:50:45;;;;;;;;;;;;;;;15.57;100.00;91117.53;5014550;28;19921;-70
2022/07/16 01:53:11;;;;;;;;;;;;;;;15.58;100.00;91119.09;5014565;28;19925;-70
2022/07/16 01:55:37;;;;;;;;;;;;;;;15.56;100.00;91122.09;5014609;28;19925;-70
2022/07/16 01:58:02;;;;;;;;;;;;;;;15.51;100.00;91118.88;5014496;28;19917;-70
2022/07/16 02:00:28;;;;;;;;;;;;;;;15.48;100.00;91119.53;5014419;28;19921;-70
2022/07/16 02:02:53;;;;;;;;;;;;;;;15.49;100.00;91126.47;5014448;28;20426;-69
2022/07/16 02:05:19;;;;;;;;;;;;;;;15.46;100.00;91124.44;5014415;28;19933;-69
2022/07/16 02:07:44;;;;;;;;;;;;;;;15.42;100.00;91121.63;5014344;28;19949;-69
2022/07/16 02:10:09;;;;;;;;;;;;;;;15.48;100.00;91124.91;5014284;28;19964;-69
2022/07/16 02:12:35;;;;;;;;;;;;;;;15.44;100.00;91130.13;5014334;28;19917;-70
2022/07/16 02:15:00;;;;;;;;;;;;;;;15.44;100.00;91130.13;5014160;28;19917;-69
2022/07/16 02:17:26;;;;;;;;;;;;;;;15.40;100.00;91131.13;5014179;28;19913;-70
2022/07/16 02:19:51;;;;;;;;;;;;;;;15.37;100.00;91129.13;5151846;23;20668;-69
2022/07/16 02:22:17;;;;;;;;;;;;;;;15.35;100.00;91126.78;5014425;28;20318;-68
2022/07/16 02:24:42;;;;;;;;;;;;;;;15.38;100.00;91126.09;5014383;28;20390;-69
2022/07/16 02:27:08;;;;;;;;;;;;;;;15.38;100.00;91130.69;5014135;28;20291;-68
2022/07/16 02:29:33;;;;;;;;;;;;;;;15.38;100.00;91128.78;5014028;28;19914;-67
2022/07/16 02:31:58;;;;;;;;;;;;;;;15.40;100.00;91125.78;5013880;28;19917;-68
2022/07/16 02:34:23;;;;;;;;;;;;;;;15.32;100.00;91129.34;5013874;28;19914;-69
2022/07/16 02:36:49;;;;;;;;;;;;;;;15.31;100.00;91130.47;5013679;28;20402;-69
2022/07/16 02:39:14;;;;;;;;;;;;;;;15.25;100.00;91137.91;4996209;28;19917;-69
2022/07/16 02:41:39;;;;;;;;;;;;;;;15.23;100.00;91118.72;5013634;28;19987;-69
2022/07/16 02:44:05;;;;;;;;;;;;;;;15.13;100.00;91114.53;5014013;28;20003;-69
2022/07/16 02:46:30;;;;;;;;;;;;;;;15.12;100.00;91125.59;5013681;28;20383;-68
2022/07/16 02:48:55;;;;;;;;;;;;;;;15.13;100.00;91129.84;5013619;28;19967;-71
2022/07/16 02:51:20;;;;;;;;;;;;;;;15.14;100.00;91132.19;4995891;28;19999;-70
2022/07/16 02:53:46;;;;;;;;;;;;;;;15.11;100.00;91132.84;4995862;28;19964;-70
2022/07/16 02:56:11;;;;;;;;;;;;;;;15.12;100.00;91126.38;5013511;28;19952;-70
2022/07/16 02:58:36;;;;;;;;;;;;;;;15.14;100.00;91123.34;4995893;28;19952;-71
2022/07/16 03:01:02;;;;;;;;;;;;;;;15.11;100.00;91124.81;5013351;28;19920;-70
2022/07/16 03:03:27;;;;;;;;;;;;;;;15.07;100.00;91123.91;5013376;28;20409;-69
2022/07/16 03:05:52;;;;;;;;;;;;;;;15.02;100.00;91132.16;5013288;28;20319;-69
2022/07/16 03:08:17;;;;;;;;;;;;;;;15.06;100.00;91127.72;5013224;28;20383;-70
2022/07/16 03:10:43;;;;;;;;;;;;;;;15.03;100.00;91136.41;5013085;28;19921;-70
2022/07/16 03:13:08;;;;;;;;;;;;;;;15.09;100.00;91129.72;5013154;28;20002;-70
2022/07/16 03:15:33;;;;;;;;;;;;;;;15.11;100.00;91132.84;5013058;28;20394;-71
2022/07/16 03:17:59;;;;;;;;;;;;;;;15.13;100.00;91130.63;5013123;28;19925;-72
2022/07/16 03:20:24;;;;;;;;;;;;;;;15.21;100.00;91137.81;5012823;28;20441;-71
2022/07/16 03:22:49;;;;;;;;;;;;;;;15.23;100.00;91135.56;5012981;28;19971;-70
2022/07/16 03:25:15;;;;;;;;;;;;;;;15.28;100.00;91138.03;5012899;28;19924;-71
2022/07/16 03:27:41;;;;;;;;;;;;;;;15.31;100.00;91139.28;5012858;28;20353;-71
2022/07/16 03:30:06;;;;;;;;;;;;;;;15.29;100.00;91134.22;5012833;28;19913;-69
2022/07/16 03:32:32;;;;;;;;;;;;;;;15.39;100.00;91149.13;5012831;28;19920;-69
2022/07/16 03:34:57;;;;;;;;;;;;;;;15.44;100.00;91146.22;5012729;28;19919;-70
2022/07/16 03:37:22;;;;;;;;;;;;;;;15.49;100.00;91143.34;5012772;28;19968;-69
2022/07/16 03:39:47;;;;;;;;;;;;;;;15.51;100.00;91143.00;5012608;28;20370;-69
2022/07/16 03:42:13;;;;;;;;;;;;;;;15.51;100.00;91151.06;5012668;28;20339;-68
2022/07/16 03:44:38;;;;;;;;;;;;;;;15.56;100.00;91148.16;5012674;28;19917;-69
2022/07/16 03:47:03;;;;;;;;;;;;;;;15.58;100.00;91146.69;5012516;28;19913;-70
2022/07/16 03:49:29;;;;;;;;;;;;;;;15.58;100.00;91145.91;5012023;28;20334;-71
2022/07/16 03:51:54;;;;;;;;;;;;;;;15.67;100.00;91152.00;5012496;28;19917;-70
2022/07/16 03:54:19;;;;;;;;;;;;;;;15.71;100.00;91154.78;5012413;28;20060;-69
2022/07/16 03:56:44;;;;;;;;;;;;;;;15.78;100.00;91155.81;5012466;28;20311;-69
2022/07/16 03:59:10;;;;;;;;;;;;;;;15.86;100.00;91152.22;5012379;28;19924;-69
2022/07/16 04:01:36;;;;;;;;;;;;;;;15.90;99.69;91156.91;5012248;28;20004;-69
2022/07/16 04:04:01;;;;;;;;;;;;;;;15.94;99.99;91161.31;5012339;28;19913;-69
2022/07/16 04:06:26;;;;;;;;;;;;;;;16.07;98.44;91160.16;5012322;28;20371;-70
2022/07/16 04:08:52;;;;;;;;;;;;;;;16.13;97.41;91164.22;5012227;28;19919;-70
2022/07/16 04:11:17;;;;;;;;;;;;;;;16.20;97.46;91165.53;5012372;28;19913;-69
2022/07/16 04:13:42;;;;;;;;;;;;;;;16.20;97.61;91174.38;5012122;28;19913;-70
2022/07/16 04:16:08;;;;;;;;;;;;;;;16.29;97.69;91169.69;5012204;28;19978;-70
2022/07/16 04:18:34;;;;;;;;;;;;;;;16.36;98.80;91174.47;4994438;28;19914;-70
2022/07/16 04:20:59;;;;;;;;;;;;;;;16.47;97.47;91181.75;5011853;28;19921;-70
2022/07/16 04:23:24;;;;;;;;;;;;;;;16.63;96.23;91183.72;5012062;28;19917;-70
2022/07/16 04:25:50;;;;;;;;;;;;;;;16.70;94.75;91174.00;5012255;28;19917;-70
2022/07/16 04:28:15;;;;;;;;;;;;;;;16.80;94.26;91178.13;5012050;28;19920;-70
2022/07/16 04:30:40;;;;;;;;;;;;;;;16.92;93.20;91178.09;5011865;28;19913;-70
2022/07/16 04:33:06;;;;;;;;;;;;;;;17.04;92.78;91174.56;5011914;28;19921;-70
2022/07/16 04:35:31;;;;;;;;;;;;;;;17.15;92.59;91175.66;5012026;28;19935;-70
2022/07/16 04:37:56;;;;;;;;;;;;;;;17.29;92.55;91183.34;5011881;28;20405;-70
2022/07/16 04:40:21;;;;;;;;;;;;;;;17.43;92.64;91183.72;5011867;28;20374;-71
2022/07/16 04:42:47;;;;;;;;;;;;;;;17.46;92.50;91174.94;5011751;28;19940;-68
2022/07/16 04:45:12;;;;;;;;;;;;;;;17.43;92.09;91189.09;5011826;28;19956;-69
2022/07/16 04:47:38;;;;;;;;;;;;;;;17.56;90.66;91182.53;5011766;28;19917;-67
2022/07/16 04:50:04;;;;;;;;;;;;;;;17.65;89.33;91175.06;5011697;28;19939;-68
2022/07/16 04:52:32;;;;;;;;;;;;;;;17.83;86.41;91174.78;4993924;28;19923;-68
2022/07/16 04:54:58;;;;;;;;;;;;;;;17.99;85.48;91172.91;5011472;28;19943;-70
2022/07/16 04:57:24;;;;;;;;;;;;;;;18.06;83.95;91172.28;5011540;28;19939;-70
2022/07/16 04:59:49;;;;;;;;;;;;;;;18.18;82.22;91169.50;5011794;28;19917;-70
2022/07/16 05:04:58;;;;;;;;;;;;;;;18.33;80.82;91165.22;5015544;28;19967;-69
2022/07/16 05:07:24;;;;;;;;;;;;;;;18.47;80.31;91165.56;5015470;28;19913;-69
2022/07/16 05:09:49;;;;;;;;;;;;;;;18.70;78.79;91169.16;4997729;28;19980;-70
2022/07/16 05:12:14;;;;;;;;;;;;;;;19.00;78.64;91174.03;5015451;28;19921;-70
2022/07/16 05:14:40;;;;;;;;;;;;;;;19.20;78.46;91172.13;5015368;28;19925;-71
2022/07/16 05:17:05;;;;;;;;;;;;;;;19.47;76.52;91178.44;5015369;28;20369;-71
2022/07/16 05:19:30;;;;;;;;;;;;;;;19.71;76.80;91178.91;5015130;28;19913;-71
2022/07/16 05:21:56;;;;;;;;;;;;;;;19.96;74.22;91165.88;5014939;28;19924;-70
2022/07/16 05:24:21;;;;;;;;;;;;;;;20.22;70.95;91172.50;5015134;28;19913;-71
2022/07/16 05:26:46;;;;;;;;;;;;;;;20.46;68.13;91168.63;5015067;28;19917;-70
2022/07/16 05:29:12;;;;;;;;;;;;;;;20.62;66.23;91172.75;5014984;28;19948;-69
2022/07/16 05:31:37;;;;;;;;;;;;;;;20.67;65.64;91171.69;4997000;28;19959;-70
2022/07/16 05:34:02;;;;;;;;;;;;;;;20.86;65.85;91173.50;5015009;28;19913;-70
2022/07/16 05:36:27;;;;;;;;;;;;;;;20.97;65.61;91177.09;5015053;28;19913;-70
2022/07/16 05:38:53;;;;;;;;;;;;;;;21.17;65.29;91181.25;5014934;28;19913;-69
2022/07/16 05:41:18;;;;;;;;;;;;;;;21.30;65.29;91184.50;5014811;28;19920;-68
2022/07/16 05:43:44;;;;;;;;;;;;;;;22.78;62.75;91182.91;5014849;28;19913;-69
2022/07/16 05:46:09;;;;;;;;;;;;;;;26.24;52.75;91174.66;5007056;28;19922;-71
2022/07/16 05:48:35;;;;;;;;;;;;;;;28.36;47.16;91182.44;4995018;28;19917;-70
2022/07/16 05:51:00;;;;;;;;;;;;;;;30.58;42.45;91189.84;4994714;28;20387;-73
2022/07/16 05:53:25;;;;;;;;;;;;;;;32.67;38.50;91199.44;4994891;28;19913;-71
2022/07/16 05:55:51;;;;;;;;;;;;;;;34.48;35.01;91192.69;4994668;28;19920;-70
2022/07/16 05:58:16;;;;;;;;;;;;;;;35.57;33.62;91199.16;4994762;28;19921;-72
2022/07/16 06:00:41;;;;;;;;;;;;;;;37.25;31.46;91198.13;4994203;28;19920;-73
2022/07/16 06:03:07;;;;;;;;;;;;;;;38.60;29.77;91194.16;4977206;28;19918;-71
2022/07/16 06:05:33;;;;;;;;;;;;;;;38.14;29.53;91197.28;4994748;28;20458;-70
2022/07/16 06:07:58;;;;;;;;;;;;;;;39.03;28.71;91198.22;4994563;28;19972;-71
2022/07/16 06:10:24;;;;;;;;;;;;;;;39.81;27.15;91209.81;4994153;28;20441;-71
2022/07/16 06:12:49;;;;;;;;;;;;;;;39.70;26.87;91202.06;4994363;28;20379;-69
2022/07/16 06:15:14;;;;;;;;;;;;;;;39.12;27.41;91197.34;4994005;28;19917;-69
2022/07/16 06:17:40;;;;;;;;;;;;;;;38.78;28.01;91196.78;4994362;28;19925;-70
2022/07/16 06:20:06;;;;;;;;;;;;;;;39.58;27.51;91192.00;4994101;28;20390;-69
2022/07/16 06:22:31;;;;;;;;;;;;;;;40.58;26.16;91200.16;4994314;28;19914;-70
2022/07/16 06:24:57;;;;;;;;;;;;;;;41.18;25.09;91193.63;4994343;28;19914;-70
2022/07/16 06:27:22;;;;;;;;;;;;;;;42.20;23.90;91192.31;4994230;28;20009;-71
2022/07/16 06:29:47;;;;;;;;;;;;;;;42.92;22.98;91186.94;4993752;28;19944;-74
2022/07/16 06:32:12;;;;;;;;;;;;;;;42.78;23.41;91184.38;4976801;28;19913;-73
2022/07/16 06:34:38;;;;;;;;;;;;;;;43.35;22.89;91189.56;4994045;28;19914;-75
2022/07/16 06:37:03;;;;;;;;;;;;;;;43.83;22.25;91192.06;4994014;28;19914;-74
2022/07/16 06:39:29;;;;;;;;;;;;;;;43.89;21.46;91189.28;4993955;28;19918;-73
2022/07/16 06:41:54;;;;;;;;;;;;;;;43.67;21.32;91186.47;4993751;28;19917;-73
2022/07/16 06:44:19;;;;;;;;;;;;;;;44.01;21.13;91184.38;4993486;28;19922;-72
2022/07/16 06:46:44;;;;;;;;;;;;;;;43.73;23.13;91190.84;4993897;28;19961;-72
2022/07/16 06:49:10;;;;;;;;;;;;;;;44.00;21.61;91186.41;4993673;28;19917;-68
2022/07/16 06:51:35;;;;;;;;;;;;;;;45.77;20.26;91193.66;4993772;28;19925;-71
2022/07/16 06:54:00;;;;;;;;;;;;;;;46.35;20.01;91190.47;4993976;28;19913;-73
2022/07/16 06:56:26;;;;;;;;;;;;;;;46.68;19.38;91185.75;4993769;28;20372;-71
2022/07/16 06:58:51;;;;;;;;;;;;;;;44.90;20.34;91188.91;4993256;28;19914;-70
2022/07/16 07:01:16;;;;;;;;;;;;;;;44.44;20.96;91179.91;4993561;28;19913;-71
2022/07/16 07:03:42;;;;;;;;;;;;;;;44.77;20.78;91190.22;4976075;28;19913;-70
2022/07/16 07:06:08;;;;;;;;;;;;;;;45.90;20.30;91185.31;4993820;28;19914;-70
2022/07/16 07:08:33;;;;;;;;;;;;;;;45.99;20.75;91184.22;4993451;28;19937;-71
2022/07/16 07:11:01;;;;;;;;;;;;;;;46.72;21.70;91189.03;4993310;28;19968;-71
2022/07/16 07:13:27;;;;;;;;;;;;;;;47.28;19.57;91188.28;4992877;28;20484;-70
2022/07/16 07:15:52;;;;;;;;;;;;;;;47.75;18.92;91185.72;4993227;28;19913;-70
2022/07/16 07:18:18;;;;;;;;;;;;;;;48.43;19.72;91197.34;4993288;28;19914;-72
2022/07/16 07:20:43;;;;;;;;;;;;;;;48.94;19.33;91196.34;4993063;28;20319;-71
2022/07/16 07:23:09;;;;;;;;;;;;;;;47.07;20.56;91183.19;4992298;28;19973;-70
2022/07/16 07:25:34;;;;;;;;;;;;;;;47.48;20.48;91181.28;4993160;28;19914;-71
2022/07/16 07:28:00;;;;;;;;;;;;;;;46.13;20.78;91179.50;4992546;28;19925;-72
2022/07/16 07:30:25;;;;;;;;;;;;;;;43.97;22.50;91181.09;4992758;28;20424;-74
2022/07/16 07:32:50;;;;;;;;;;;;;;;43.86;21.96;91181.88;4992992;28;19920;-71
2022/07/16 07:35:15;;;;;;;;;;;;;;;43.30;23.71;91182.69;4992858;28;19913;-69
2022/07/16 07:37:41;;;;;;;;;;;;;;;42.05;23.60;91176.47;4992803;28;19913;-72
2022/07/16 07:40:06;;;;;;;;;;;;;;;43.16;22.96;91188.50;4992605;28;19968;-70
2022/07/16 07:42:32;;;;;;;;;;;;;;;45.49;23.14;91190.31;4992788;28;20004;-73
2022/07/16 07:44:57;;;;;;;;;;;;;;;45.41;21.61;91190.09;4992378;28;19914;-71
2022/07/16 07:47:23;;;;;;;;;;;;;;;44.06;22.21;91198.41;4992639;28;19914;-72
2022/07/16 07:49:48;;;;;;;;;;;;;;;43.73;23.10;91188.03;4992559;28;20012;-70
2022/07/16 07:52:13;;;;;;;;;;;;;;;42.55;23.90;91191.94;4992739;28;19913;-69
2022/07/16 07:54:39;;;;;;;;;;;;;;;39.77;28.05;91189.75;4992804;28;19964;-69
2022/07/16 07:57:04;;;;;;;;;;;;;;;40.72;26.02;91193.72;4992527;28;20379;-70
2022/07/16 07:59:30;;;;;;;;;;;;;;;42.28;25.17;91196.91;4992198;28;19925;-71
2022/07/16 08:01:55;;;;;;;;;;;;;;;43.16;23.48;91189.28;4992551;28;19925;-70
2022/07/16 08:04:20;;;;;;;;;;;;;;;43.78;24.07;91190.06;4992552;28;20052;-71
2022/07/16 08:06:46;;;;;;;;;;;;;;;43.41;24.50;91198.75;4992279;28;19918;-71
2022/07/16 08:09:11;;;;;;;;;;;;;;;43.96;23.13;91196.38;4991958;28;19914;-70
2022/07/16 08:11:36;;;;;;;;;;;;;;;44.19;23.17;91198.66;4992471;28;20008;-68
2022/07/16 08:14:01;;;;;;;;;;;;;;;44.00;23.65;91197.63;4991890;28;19965;-71
2022/07/16 08:16:27;;;;;;;;;;;;;;;44.96;22.10;91195.25;4992349;28;20411;-71
2022/07/16 08:18:52;;;;;;;;;;;;;;;42.96;23.52;91198.69;4992293;28;19913;-70
2022/07/16 08:21:18;;;;;;;;;;;;;;;45.13;21.64;91198.69;4992016;28;20027;-68
2022/07/16 08:26:27;;;;;;;;;;;;;;;44.10;23.26;91190.50;4992142;28;20064;-68
2022/07/16 08:28:52;;;;;;;;;;;;;;;43.99;22.85;91193.31;5002813;28;20426;-68
2022/07/16 08:31:18;;;;;;;;;;;;;;;44.09;22.61;91194.59;5011262;28;19917;-68
2022/07/16 08:33:43;;;;;;;;;;;;;;;40.81;26.14;91184.38;5010847;28;20041;-69
2022/07/16 08:36:09;;;;;;;;;;;;;;;38.20;26.97;91184.31;5010471;28;19967;-68
2022/07/16 08:38:34;;;;;;;;;;;;;;;38.97;26.51;91177.84;5011028;28;19947;-69
2022/07/16 08:41:02;;;;;;;;;;;;;;;40.17;26.42;91186.22;5010899;28;20379;-67
2022/07/16 08:43:29;;;;;;;;;;;;;;;41.62;24.68;91184.06;5011000;28;19917;-67
2022/07/16 08:45:54;;;;;;;;;;;;;;;43.11;24.45;91175.28;5011507;28;19917;-68
2022/07/16 08:48:20;;;;;;;;;;;;;;;43.08;24.17;91181.88;5009266;28;20793;-71
2022/07/16 08:50:46;;;;;;;;;;;;;;;42.27;24.34;91177.84;5010963;28;19921;-67
2022/07/16 08:53:12;;;;;;;;;;;;;;;40.75;26.47;91175.97;5010740;28;19920;-68
2022/07/16 08:55:40;;;;;;;;;;;;;;;42.28;24.62;91182.91;5011280;28;19941;-68
2022/07/16 08:58:06;;;;;;;;;;;;;;;42.42;25.65;91184.75;5010554;28;19983;-68
2022/07/16 09:00:32;;;;;;;;;;;;;;;42.27;25.30;91184.19;5011302;28;19913;-71
2022/07/16 09:02:57;;;;;;;;;;;;;;;43.88;24.49;91191.31;5011280;28;20004;-70
2022/07/16 09:05:24;;;;;;;;;;;;;;;42.96;24.68;91190.28;5011228;28;19956;-72
2022/07/16 09:07:50;;;;;;;;;;;;;;;41.98;25.46;91184.53;5011257;28;19917;-70
2022/07/16 09:10:15;;;;;;;;;;;;;;;42.82;24.52;91188.47;5010836;28;19924;-72
2022/07/16 09:12:42;;;;;;;;;;;;;;;41.67;25.29;91185.41;5010528;28;20334;-70
2022/07/16 09:15:24;;;;;;;;;;;;;;;41.33;25.41;91192.75;5011320;28;20346;-71
2022/07/16 09:18:07;;;;;;;;;;;;;;;40.52;25.53;91197.28;5011303;28;19921;-72
2022/07/16 09:20:33;;;;;;;;;;;;;;;40.90;25.85;91189.84;5011040;28;20000;-72
2022/07/16 09:22:58;;;;;;;;;;;;;;;42.18;24.79;91192.81;5011370;28;20368;-68
2022/07/16 09:25:23;;;;;;;;;;;;;;;38.82;26.50;91183.47;5011282;28;19913;-67
2022/07/16 09:27:57;;;;;;;;;;;;;;;39.56;27.64;91186.16;5010815;28;19971;-67
2022/07/16 09:30:23;;;;;;;;;;;;;;;38.22;28.86;91187.41;5011365;28;19913;-66
2022/07/16 09:32:48;;;;;;;;;;;;;;;39.09;27.90;91187.19;5010572;28;20306;-66
2022/07/16 09:35:14;;;;;;;;;;;;;;;39.27;26.76;91186.97;5011078;28;20307;-67
2022/07/16 09:37:53;;;;;;;;;;;;;;;41.34;26.26;91185.91;5011046;28;19995;-68
2022/07/16 09:40:34;;;;;;;;;;;;;;;40.25;25.52;91176.19;5010886;28;19920;-67
2022/07/16 09:43:00;;;;;;;;;;;;;;;42.02;24.76;91174.66;5010661;28;19920;-68
2022/07/16 09:45:26;;;;;;;;;;;;;;;42.32;24.67;91171.50;5011142;28;19917;-67
2022/07/16 09:47:51;;;;;;;;;;;;;;;41.33;25.04;91176.75;5014374;28;20404;-67
2022/07/16 09:50:17;;;;;;;;;;;;;;;40.67;24.62;91183.25;5014316;28;19913;-67
2022/07/16 09:52:42;;;;;;;;;;;;;;;40.56;26.47;91181.13;5014721;28;19936;-66
2022/07/16 09:55:08;;;;;;;;;;;;;;;41.72;24.75;91174.25;5014422;28;19917;-66
2022/07/16 09:57:34;;;;;;;;;;;;;;;39.33;25.71;91176.69;5013970;28;19914;-66
2022/07/16 09:59:59;;;;;;;;;;;;;;;40.87;25.43;91172.06;5014165;28;19913;-67
2022/07/16 10:02:25;;;;;;;;;;;;;;;41.43;25.31;91172.53;4996662;28;19925;-66
2022/07/16 10:04:51;;;;;;;;;;;;;;;41.32;24.44;91174.47;5014189;28;20429;-66
2022/07/16 10:07:19;;;;;;;;;;;;;;;42.46;23.62;91174.09;5014258;28;20433;-68
2022/07/16 10:09:44;;;;;;;;;;;;;;;42.71;22.79;91166.03;5014037;28;20000;-67
2022/07/16 10:12:15;;;;;;;;;;;;;;;42.26;24.94;91168.69;5012907;28;20546;-68
2022/07/16 10:14:42;;;;;;;;;;;;;;;44.38;22.71;91167.97;5014209;28;20024;-68
2022/07/16 10:17:15;;;;;;;;;;;;;;;43.93;22.11;91168.09;5014214;28;19914;-68
2022/07/16 10:19:40;;;;;;;;;;;;;;;42.72;23.33;91167.56;5014101;28;19921;-68
2022/07/16 10:22:16;;;;;;;;;;;;;;;41.67;24.65;91163.06;5014075;28;19929;-68
2022/07/16 10:24:53;;;;;;;;;;;;;;;42.74;23.89;91154.59;5014141;28;19964;-68
2022/07/16 10:27:32;;;;;;;;;;;;;;;43.58;23.81;91159.50;5014103;28;20434;-68
2022/07/16 10:30:07;;;;;;;;;;;;;;;42.48;24.00;91151.22;5013745;28;20380;-68
2022/07/16 10:32:53;;;;;;;;;;;;;;;41.48;24.98;91151.47;5014126;28;19914;-68
2022/07/16 10:35:47;;;;;;;;;;;;;;;42.91;24.13;91146.22;5013781;28;19914;-68
2022/07/16 10:38:14;;;;;;;;;;;;;;;43.92;23.45;91146.94;4997133;28;19913;-69
2022/07/16 10:40:41;;;;;;;;;;;;;;;44.63;22.13;91146.41;5013632;28;20008;-68
2022/07/16 10:43:14;;;;;;;;;;;;;;;45.43;21.82;91147.41;5013980;28;19920;-68
2022/07/16 10:45:49;;;;;;;;;;;;;;;44.38;22.81;91153.94;5013965;28;19913;-68
2022/07/16 10:48:14;;;;;;;;;;;;;;;45.33;22.47;91141.38;5013845;28;20291;-68
2022/07/16 10:50:40;;;;;;;;;;;;;;;43.13;23.93;91136.34;5013583;28;19928;-68
2022/07/16 10:53:05;;;;;;;;;;;;;;;39.63;26.39;91132.09;5013601;28;19923;-67
2022/07/16 10:55:40;;;;;;;;;;;;;;;38.93;27.65;91139.13;5013535;28;20012;-68
2022/07/16 10:58:05;;;;;;;;;;;;;;;38.73;27.92;91144.59;5013364;28;19965;-68
2022/07/16 11:00:31;;;;;;;;;;;;;;;40.09;27.26;91151.69;5013579;28;19917;-68
2022/07/16 11:02:58;;;;;;;;;;;;;;;40.79;26.00;91143.03;5013440;28;20012;-68
2022/07/16 11:05:24;;;;;;;;;;;;;;;40.89;25.37;91135.28;5013484;28;19913;-68
2022/07/16 11:07:50;;;;;;;;;;;;;;;40.86;25.62;91134.25;5013334;28;19913;-68
2022/07/16 11:10:15;;;;;;;;;;;;;;;39.50;26.97;91143.53;5013247;28;19933;-68
2022/07/16 11:12:40;;;;;;;;;;;;;;;39.56;27.06;91132.47;5013198;28;19993;-68
2022/07/16 11:15:06;;;;;;;;;;;;;;;40.33;27.46;91134.69;5013138;28;19913;-69
2022/07/16 11:17:33;;;;;;;;;;;;;;;40.49;26.35;91131.34;5013138;28;19913;-68
2022/07/16 11:20:00;;;;;;;;;;;;;;;41.05;26.96;91131.88;5012763;28;19913;-69
2022/07/16 11:22:28;;;;;;;;;;;;;;;40.77;26.79;91128.06;5013075;28;19921;-68
2022/07/16 11:25:02;;;;;;;;;;;;;;;40.81;26.11;91125.78;5012961;28;19914;-69
2022/07/16 11:27:36;;;;;;;;;;;;;;;40.33;26.55;91138.25;5013012;28;19921;-69
2022/07/16 11:30:03;;;;;;;;;;;;;;;40.69;26.02;91136.84;5012872;28;19913;-69
2022/07/16 11:32:29;;;;;;;;;;;;;;;41.26;26.63;91138.91;5012837;28;20354;-70
2022/07/16 11:34:54;;;;;;;;;;;;;;;38.10;28.78;91138.38;5012707;28;19917;-69
2022/07/16 11:37:20;;;;;;;;;;;;;;;36.77;31.99;91129.41;5012747;28;20410;-69
2022/07/16 11:39:46;;;;;;;;;;;;;;;35.84;32.35;91132.00;5012490;28;19917;-69
2022/07/16 11:42:11;;;;;;;;;;;;;;;33.78;34.34;91140.75;5012621;28;20446;-68
2022/07/16 11:44:38;;;;;;;;;;;;;;;32.74;35.12;91126.81;5012622;28;19914;-69
2022/07/16 11:47:05;;;;;;;;;;;;;;;32.10;36.63;91143.25;5012640;28;19913;-70
2022/07/16 11:49:31;;;;;;;;;;;;;;;31.79;37.44;91142.94;5012570;28;19973;-69
2022/07/16 11:51:58;;;;;;;;;;;;;;;31.77;38.16;91137.09;5012510;28;20288;-69
2022/07/16 11:54:24;;;;;;;;;;;;;;;34.37;34.16;91141.78;5012466;28;19914;-69
2022/07/16 11:56:50;;;;;;;;;;;;;;;35.92;32.89;91139.53;5012353;28;20380;-68
2022/07/16 11:59:16;;;;;;;;;;;;;;;37.66;30.50;91136.22;5012363;28;20011;-69
2022/07/16 12:01:41;;;;;;;;;;;;;;;37.37;30.90;91127.75;5012396;28;19913;-69
2022/07/16 12:04:07;;;;;;;;;;;;;;;37.96;29.25;91130.78;5012400;28;19965;-69
2022/07/16 12:06:32;;;;;;;;;;;;;;;38.38;30.24;91132.59;5012328;28;19913;-69
2022/07/16 12:08:57;;;;;;;;;;;;;;;38.19;29.00;91127.22;5011709;28;20362;-69
2022/07/16 12:11:30;;;;;;;;;;;;;;;37.99;29.77;91125.03;5012220;28;19920;-69
2022/07/16 12:13:56;;;;;;;;;;;;;;;35.33;32.60;91136.03;5012061;28;20004;-69
2022/07/16 12:16:22;;;;;;;;;;;;;;;33.61;34.05;91135.41;4994494;28;19996;-69
2022/07/16 12:19:04;;;;;;;;;;;;;;;32.48;36.15;91143.31;5012034;28;20436;-69
2022/07/16 12:21:30;;;;;;;;;;;;;;;31.46;37.81;91136.75;4994331;28;20384;-69
2022/07/16 12:23:56;;;;;;;;;;;;;;;30.72;39.38;91149.56;5011918;28;19918;-68
2022/07/16 12:26:51;;;;;;;;;;;;;;;30.35;39.36;91140.56;5012028;28;19913;-69
2022/07/16 12:29:17;;;;;;;;;;;;;;;30.41;39.87;91138.84;4995098;28;19917;-69
2022/07/16 12:31:42;;;;;;;;;;;;;;;30.95;39.24;91143.91;5012144;28;19945;-69
2022/07/16 12:34:08;;;;;;;;;;;;;;;31.31;39.27;91130.06;5011838;28;19956;-68
2022/07/16 12:36:38;;;;;;;;;;;;;;;31.54;39.08;91138.06;5011861;28;19913;-69
2022/07/16 12:39:07;;;;;;;;;;;;;;;31.50;38.31;91131.13;5011834;28;19964;-69
2022/07/16 12:41:34;;;;;;;;;;;;;;;31.28;39.58;91136.44;5011893;28;20379;-69
2022/07/16 12:44:12;;;;;;;;;;;;;;;31.25;39.46;91132.56;5012082;28;19917;-68
2022/07/16 12:46:38;;;;;;;;;;;;;;;31.09;39.36;91124.31;5011845;28;20339;-68
2022/07/16 12:49:05;;;;;;;;;;;;;;;32.07;38.38;91135.09;5011709;28;19913;-69
2022/07/16 12:51:32;;;;;;;;;;;;;;;32.54;38.67;91126.25;5011763;28;19921;-68